Airfield :
LOGIN :

Register | Disclaimer

   EN    FR    IT 

 










Legend :    VFR   Marginal VFR   IFR   Intensive IFR   Very Intensive IFR
Visi :
Ceiling :
>= 8 km
>= 3000ft
5 to 8 km
1000 to 3000 ft
1500m to 5 km
500 to 1000 ft
800 to 1500m
200 to 500 ft
< 800m
< 200 ft
Symbols :   Thunderstorms  Fog  Heavy snow  Heavy precipitations  Wind > 20 kt
SIGMETs :     Misc.  Thunderstorms  Icing  Turbulence  Mountain Waves  Volcanic Ashes







- Airport Elevation : 106 ft
- IATA code : NRN


EDLV - Weeze

CURRENT METAR :
  • 270650Z 04007KT 330V110 CAVOK 16/11 Q1029

EXPIRED METARs :
  • 270620Z 04006KT 330V130 9999 FEW018 15/11 Q1029
  • 270550Z 04005KT 340V110 9999 BKN017 15/11 Q1028
  • 270520Z VRB04KT 9999 BKN015 15/11 Q1028
  • 270450Z 04005KT 350V080 9999 BKN015 15/12 Q1028
  • 270420Z VRB03KT 9999 BKN014 15/12 Q1028

TAF TAF EDLV
Valid from the 27 at 06:00 until the 28 at 06:00 UTC


270500Z 2706/2806 02005KT 9999 FEW020
TEMPO 2706/2708 BKN014
No reported NOTAMs for that airfield.



MET'MAP, your aeronautical weather chart ! - Copyright ORBIFLY December 2007 - Disclaimer

ORBIFLY MET'MAP TEAM :

Programming & Development : Alexandra Zaïnal
Concept & Development : Baudouin d'Aumeries
Co-Development & Prog : Marc-Olivier Méhu
Technical & hardware support : Manuel Goepfert

Contact : metmap@orbifly.com




SOURCES & CREDITS :

   NOAA